sensor_id;sensor_type;location;lat;lon;timestamp;temperature;humidity
47540;DHT22;33280;52.152;21.052;2023-02-26T00:01:02;1.50;99.90
47540;DHT22;33280;52.152;21.052;2023-02-26T00:03:29;1.40;99.90
47540;DHT22;33280;52.152;21.052;2023-02-26T00:06:02;1.50;99.90
47540;DHT22;33280;52.152;21.052;2023-02-26T00:08:29;1.40;99.90
47540;DHT22;33280;52.152;21.052;2023-02-26T00:10:57;1.30;99.90
47540;DHT22;33280;52.152;21.052;2023-02-26T00:13:24;1.30;99.90
47540;DHT22;33280;52.152;21.052;2023-02-26T00:15:58;1.30;99.90
47540;DHT22;33280;52.152;21.052;2023-02-26T00:18:32;1.20;99.90
47540;DHT22;33280;52.152;21.052;2023-02-26T00:20:59;1.10;99.90
47540;DHT22;33280;52.152;21.052;2023-02-26T00:23:26;1.20;99.90
47540;DHT22;33280;52.152;21.052;2023-02-26T00:25:56;1.30;99.90
47540;DHT22;33280;52.152;21.052;2023-02-26T00:28:23;1.10;99.90
47540;DHT22;33280;52.152;21.052;2023-02-26T00:30:50;1.10;99.90
47540;DHT22;33280;52.152;21.052;2023-02-26T00:33:18;1.10;99.90
47540;DHT22;33280;52.152;21.052;2023-02-26T00:35:55;1.00;99.90
47540;DHT22;33280;52.152;21.052;2023-02-26T00:38:26;1.10;99.90
47540;DHT22;33280;52.152;21.052;2023-02-26T00:40:56;1.00;99.90
47540;DHT22;33280;52.152;21.052;2023-02-26T00:43:24;1.00;99.90
47540;DHT22;33280;52.152;21.052;2023-02-26T00:46:09;1.00;99.90
47540;DHT22;33280;52.152;21.052;2023-02-26T00:48:58;1.10;99.90
47540;DHT22;33280;52.152;21.052;2023-02-26T00:51:40;1.00;99.90
47540;DHT22;33280;52.152;21.052;2023-02-26T00:54:18;1.00;99.90
47540;DHT22;33280;52.152;21.052;2023-02-26T00:56:45;1.00;99.90
47540;DHT22;33280;52.152;21.052;2023-02-26T01:01:57;0.80;99.90
47540;DHT22;33280;52.152;21.052;2023-02-26T01:04:25;0.80;99.90
47540;DHT22;33280;52.152;21.052;2023-02-26T01:06:54;0.80;99.90
47540;DHT22;33280;52.152;21.052;2023-02-26T01:11:59;0.90;99.90
47540;DHT22;33280;52.152;21.052;2023-02-26T01:14:28;1.00;99.90
47540;DHT22;33280;52.152;21.052;2023-02-26T01:19:47;1.00;99.90
47540;DHT22;33280;52.152;21.052;2023-02-26T01:22:19;0.90;99.90
47540;DHT22;33280;52.152;21.052;2023-02-26T01:24:53;0.90;99.90
47540;DHT22;33280;52.152;21.052;2023-02-26T01:27:28;1.00;99.90
47540;DHT22;33280;52.152;21.052;2023-02-26T01:29:55;0.90;99.90
47540;DHT22;33280;52.152;21.052;2023-02-26T01:38:12;0.90;99.90
47540;DHT22;33280;52.152;21.052;2023-02-26T01:41:03;0.90;99.90
47540;DHT22;33280;52.152;21.052;2023-02-26T01:46:24;0.90;99.90
47540;DHT22;33280;52.152;21.052;2023-02-26T01:48:54;0.90;99.90
47540;DHT22;33280;52.152;21.052;2023-02-26T01:54:08;0.90;99.90
47540;DHT22;33280;52.152;21.052;2023-02-26T01:56:44;0.80;99.90
47540;DHT22;33280;52.152;21.052;2023-02-26T01:59:14;0.80;99.90
47540;DHT22;33280;52.152;21.052;2023-02-26T02:01:43;0.80;99.90
47540;DHT22;33280;52.152;21.052;2023-02-26T02:04:13;0.80;99.90
47540;DHT22;33280;52.152;21.052;2023-02-26T02:06:40;0.90;99.90
47540;DHT22;33280;52.152;21.052;2023-02-26T02:09:11;0.90;99.90
47540;DHT22;33280;52.152;21.052;2023-02-26T02:31:32;1.00;99.90
47540;DHT22;33280;52.152;21.052;2023-02-26T02:34:09;1.10;99.90
47540;DHT22;33280;52.152;21.052;2023-02-26T02:36:43;0.90;99.90
47540;DHT22;33280;52.152;21.052;2023-02-26T02:39:15;0.80;99.90
47540;DHT22;33280;52.152;21.052;2023-02-26T02:42:00;0.80;99.90
47540;DHT22;33280;52.152;21.052;2023-02-26T02:44:33;0.70;99.90
47540;DHT22;33280;52.152;21.052;2023-02-26T02:47:03;0.70;99.90
47540;DHT22;33280;52.152;21.052;2023-02-26T02:49:58;0.80;99.90
47540;DHT22;33280;52.152;21.052;2023-02-26T02:52:32;0.80;99.90
47540;DHT22;33280;52.152;21.052;2023-02-26T02:55:05;0.80;99.90
47540;DHT22;33280;52.152;21.052;2023-02-26T03:00:14;0.80;99.90
47540;DHT22;33280;52.152;21.052;2023-02-26T03:05:17;0.80;99.90
47540;DHT22;33280;52.152;21.052;2023-02-26T03:07:52;0.80;99.90
47540;DHT22;33280;52.152;21.052;2023-02-26T03:10:19;0.80;99.90
47540;DHT22;33280;52.152;21.052;2023-02-26T03:12:48;0.80;99.90
47540;DHT22;33280;52.152;21.052;2023-02-26T03:15:20;0.80;99.90
47540;DHT22;33280;52.152;21.052;2023-02-26T03:18:12;0.70;99.90
47540;DHT22;33280;52.152;21.052;2023-02-26T03:20:53;0.80;99.90
47540;DHT22;33280;52.152;21.052;2023-02-26T03:23:31;0.80;99.90
47540;DHT22;33280;52.152;21.052;2023-02-26T03:26:07;0.90;99.90
47540;DHT22;33280;52.152;21.052;2023-02-26T03:28:40;0.90;99.90
47540;DHT22;33280;52.152;21.052;2023-02-26T03:31:25;0.90;99.90
47540;DHT22;33280;52.152;21.052;2023-02-26T03:34:16;0.80;99.90
47540;DHT22;33280;52.152;21.052;2023-02-26T03:39:43;0.90;99.90
47540;DHT22;33280;52.152;21.052;2023-02-26T03:42:21;0.90;99.90
47540;DHT22;33280;52.152;21.052;2023-02-26T03:44:54;0.90;99.90
47540;DHT22;33280;52.152;21.052;2023-02-26T03:47:24;0.90;99.90
47540;DHT22;33280;52.152;21.052;2023-02-26T03:50:04;1.00;99.90
47540;DHT22;33280;52.152;21.052;2023-02-26T03:52:38;0.90;99.90
47540;DHT22;33280;52.152;21.052;2023-02-26T03:55:17;0.90;99.90
47540;DHT22;33280;52.152;21.052;2023-02-26T03:57:45;0.80;99.90
47540;DHT22;33280;52.152;21.052;2023-02-26T04:00:13;0.90;99.90
47540;DHT22;33280;52.152;21.052;2023-02-26T04:03:00;0.80;99.90
47540;DHT22;33280;52.152;21.052;2023-02-26T04:05:33;0.90;99.90
47540;DHT22;33280;52.152;21.052;2023-02-26T04:08:01;0.80;99.90
47540;DHT22;33280;52.152;21.052;2023-02-26T04:11:08;0.80;99.90
47540;DHT22;33280;52.152;21.052;2023-02-26T04:13:36;0.90;99.90
47540;DHT22;33280;52.152;21.052;2023-02-26T04:16:04;0.90;99.90
47540;DHT22;33280;52.152;21.052;2023-02-26T04:18:31;0.90;99.90
47540;DHT22;33280;52.152;21.052;2023-02-26T04:20:58;0.90;99.90
47540;DHT22;33280;52.152;21.052;2023-02-26T04:23:25;0.80;99.90
47540;DHT22;33280;52.152;21.052;2023-02-26T04:25:52;0.80;99.90
47540;DHT22;33280;52.152;21.052;2023-02-26T04:28:19;0.90;99.90
47540;DHT22;33280;52.152;21.052;2023-02-26T04:30:47;0.90;99.90
47540;DHT22;33280;52.152;21.052;2023-02-26T04:33:14;0.90;99.90
47540;DHT22;33280;52.152;21.052;2023-02-26T04:35:42;0.90;99.90
47540;DHT22;33280;52.152;21.052;2023-02-26T04:38:09;1.00;99.90
47540;DHT22;33280;52.152;21.052;2023-02-26T04:40:35;0.90;99.90
47540;DHT22;33280;52.152;21.052;2023-02-26T04:43:03;0.90;99.90
47540;DHT22;33280;52.152;21.052;2023-02-26T04:45:29;0.80;99.90
47540;DHT22;33280;52.152;21.052;2023-02-26T04:47:56;0.80;99.90
47540;DHT22;33280;52.152;21.052;2023-02-26T04:50:23;0.80;99.90
47540;DHT22;33280;52.152;21.052;2023-02-26T04:52:50;0.80;99.90
47540;DHT22;33280;52.152;21.052;2023-02-26T04:55:17;0.70;99.90
47540;DHT22;33280;52.152;21.052;2023-02-26T04:57:44;0.70;99.90
47540;DHT22;33280;52.152;21.052;2023-02-26T05:00:11;0.80;99.90
47540;DHT22;33280;52.152;21.052;2023-02-26T05:02:38;0.80;99.90
47540;DHT22;33280;52.152;21.052;2023-02-26T05:05:05;0.70;99.90
47540;DHT22;33280;52.152;21.052;2023-02-26T05:07:32;0.70;99.90
47540;DHT22;33280;52.152;21.052;2023-02-26T05:09:59;0.70;99.90
47540;DHT22;33280;52.152;21.052;2023-02-26T05:12:26;0.70;99.90
47540;DHT22;33280;52.152;21.052;2023-02-26T05:14:53;0.60;99.90
47540;DHT22;33280;52.152;21.052;2023-02-26T05:17:20;0.60;99.90
47540;DHT22;33280;52.152;21.052;2023-02-26T05:19:47;0.60;99.90
47540;DHT22;33280;52.152;21.052;2023-02-26T05:22:14;0.60;99.90
47540;DHT22;33280;52.152;21.052;2023-02-26T05:24:40;0.60;99.90
47540;DHT22;33280;52.152;21.052;2023-02-26T05:27:07;0.60;99.90
47540;DHT22;33280;52.152;21.052;2023-02-26T05:29:34;0.60;99.90
47540;DHT22;33280;52.152;21.052;2023-02-26T05:32:02;0.50;99.90
47540;DHT22;33280;52.152;21.052;2023-02-26T05:34:29;0.60;99.90
47540;DHT22;33280;52.152;21.052;2023-02-26T05:36:55;0.50;99.90
47540;DHT22;33280;52.152;21.052;2023-02-26T05:39:22;0.50;99.90
47540;DHT22;33280;52.152;21.052;2023-02-26T05:41:49;0.50;99.90
47540;DHT22;33280;52.152;21.052;2023-02-26T05:44:17;0.60;99.90
47540;DHT22;33280;52.152;21.052;2023-02-26T05:46:44;0.60;99.90
47540;DHT22;33280;52.152;21.052;2023-02-26T05:49:11;0.60;99.90
47540;DHT22;33280;52.152;21.052;2023-02-26T05:51:38;0.70;99.90
47540;DHT22;33280;52.152;21.052;2023-02-26T05:54:05;0.70;99.90
47540;DHT22;33280;52.152;21.052;2023-02-26T05:56:32;0.80;99.90
47540;DHT22;33280;52.152;21.052;2023-02-26T05:58:58;0.70;99.90
47540;DHT22;33280;52.152;21.052;2023-02-26T06:01:28;0.70;99.90
47540;DHT22;33280;52.152;21.052;2023-02-26T06:03:56;0.70;99.90
47540;DHT22;33280;52.152;21.052;2023-02-26T06:06:23;0.60;99.90
47540;DHT22;33280;52.152;21.052;2023-02-26T06:08:51;0.60;99.90
47540;DHT22;33280;52.152;21.052;2023-02-26T06:11:18;0.50;99.90
47540;DHT22;33280;52.152;21.052;2023-02-26T06:13:45;0.40;99.90
47540;DHT22;33280;52.152;21.052;2023-02-26T06:16:12;0.20;99.90
47540;DHT22;33280;52.152;21.052;2023-02-26T06:18:39;0.10;99.90
47540;DHT22;33280;52.152;21.052;2023-02-26T06:21:06;0.00;99.90
47540;DHT22;33280;52.152;21.052;2023-02-26T06:23:33;0.00;99.90
47540;DHT22;33280;52.152;21.052;2023-02-26T06:26:00;0.00;99.90
47540;DHT22;33280;52.152;21.052;2023-02-26T06:28:27;0.00;99.90
47540;DHT22;33280;52.152;21.052;2023-02-26T06:30:54;0.00;99.90
47540;DHT22;33280;52.152;21.052;2023-02-26T06:33:21;0.00;99.90
47540;DHT22;33280;52.152;21.052;2023-02-26T06:35:52;0.00;99.90
47540;DHT22;33280;52.152;21.052;2023-02-26T06:38:22;0.00;99.90
47540;DHT22;33280;52.152;21.052;2023-02-26T06:40:56;-0.10;99.90
47540;DHT22;33280;52.152;21.052;2023-02-26T06:43:23;-0.10;99.90
47540;DHT22;33280;52.152;21.052;2023-02-26T06:45:50;0.00;99.90
47540;DHT22;33280;52.152;21.052;2023-02-26T06:48:17;0.00;99.90
47540;DHT22;33280;52.152;21.052;2023-02-26T06:50:44;-0.10;99.90
47540;DHT22;33280;52.152;21.052;2023-02-26T06:53:11;0.00;99.90
47540;DHT22;33280;52.152;21.052;2023-02-26T06:55:48;-0.10;99.90
47540;DHT22;33280;52.152;21.052;2023-02-26T06:58:16;-0.10;99.90
47540;DHT22;33280;52.152;21.052;2023-02-26T07:00:43;-0.10;99.90
47540;DHT22;33280;52.152;21.052;2023-02-26T07:03:15;0.00;99.90
47540;DHT22;33280;52.152;21.052;2023-02-26T07:05:44;0.00;99.90
47540;DHT22;33280;52.152;21.052;2023-02-26T07:08:11;0.10;99.90
47540;DHT22;33280;52.152;21.052;2023-02-26T07:10:40;0.20;99.90
47540;DHT22;33280;52.152;21.052;2023-02-26T07:13:07;0.00;99.90
47540;DHT22;33280;52.152;21.052;2023-02-26T07:15:34;0.00;99.90
47540;DHT22;33280;52.152;21.052;2023-02-26T07:18:01;0.00;99.90
47540;DHT22;33280;52.152;21.052;2023-02-26T07:20:31;0.00;99.90
47540;DHT22;33280;52.152;21.052;2023-02-26T07:22:59;0.00;99.90
47540;DHT22;33280;52.152;21.052;2023-02-26T07:25:27;0.10;99.90
47540;DHT22;33280;52.152;21.052;2023-02-26T07:27:54;0.10;99.90
47540;DHT22;33280;52.152;21.052;2023-02-26T07:30:21;0.20;99.90
47540;DHT22;33280;52.152;21.052;2023-02-26T07:32:48;0.20;99.90
47540;DHT22;33280;52.152;21.052;2023-02-26T07:35:15;0.20;99.90
47540;DHT22;33280;52.152;21.052;2023-02-26T07:37:42;0.30;99.90
47540;DHT22;33280;52.152;21.052;2023-02-26T07:40:10;0.20;99.90
47540;DHT22;33280;52.152;21.052;2023-02-26T07:42:37;0.30;99.90
47540;DHT22;33280;52.152;21.052;2023-02-26T07:45:04;0.40;99.90
47540;DHT22;33280;52.152;21.052;2023-02-26T07:47:31;0.40;99.90
47540;DHT22;33280;52.152;21.052;2023-02-26T07:49:58;0.50;99.90
47540;DHT22;33280;52.152;21.052;2023-02-26T07:52:25;0.50;99.90
47540;DHT22;33280;52.152;21.052;2023-02-26T07:54:52;0.60;99.90
47540;DHT22;33280;52.152;21.052;2023-02-26T07:57:19;0.70;99.90
47540;DHT22;33280;52.152;21.052;2023-02-26T07:59:46;0.80;99.90
47540;DHT22;33280;52.152;21.052;2023-02-26T08:02:13;0.60;99.90
47540;DHT22;33280;52.152;21.052;2023-02-26T08:04:39;0.70;99.90
47540;DHT22;33280;52.152;21.052;2023-02-26T08:07:08;0.70;99.90
47540;DHT22;33280;52.152;21.052;2023-02-26T08:09:35;0.80;99.90
47540;DHT22;33280;52.152;21.052;2023-02-26T08:12:05;0.70;99.90
47540;DHT22;33280;52.152;21.052;2023-02-26T08:14:32;0.70;99.90
47540;DHT22;33280;52.152;21.052;2023-02-26T08:16:59;0.70;99.90
47540;DHT22;33280;52.152;21.052;2023-02-26T08:19:27;0.80;99.90
47540;DHT22;33280;52.152;21.052;2023-02-26T08:21:54;0.70;99.90
47540;DHT22;33280;52.152;21.052;2023-02-26T08:24:21;0.90;99.90
47540;DHT22;33280;52.152;21.052;2023-02-26T08:26:48;0.80;99.90
47540;DHT22;33280;52.152;21.052;2023-02-26T08:29:18;0.80;99.90
47540;DHT22;33280;52.152;21.052;2023-02-26T08:31:50;0.80;99.90
47540;DHT22;33280;52.152;21.052;2023-02-26T08:34:20;0.80;99.90
47540;DHT22;33280;52.152;21.052;2023-02-26T08:36:47;0.80;99.90
47540;DHT22;33280;52.152;21.052;2023-02-26T08:39:14;0.90;99.90
47540;DHT22;33280;52.152;21.052;2023-02-26T08:41:41;1.10;99.90
47540;DHT22;33280;52.152;21.052;2023-02-26T08:44:07;1.10;99.90
47540;DHT22;33280;52.152;21.052;2023-02-26T08:46:34;1.20;99.90
47540;DHT22;33280;52.152;21.052;2023-02-26T08:49:01;1.10;99.90
47540;DHT22;33280;52.152;21.052;2023-02-26T08:51:29;1.20;99.90
47540;DHT22;33280;52.152;21.052;2023-02-26T08:53:55;1.10;99.90
47540;DHT22;33280;52.152;21.052;2023-02-26T08:56:23;1.00;99.90
47540;DHT22;33280;52.152;21.052;2023-02-26T08:58:50;0.90;99.90
47540;DHT22;33280;52.152;21.052;2023-02-26T09:01:17;0.90;99.90
47540;DHT22;33280;52.152;21.052;2023-02-26T09:03:44;1.00;99.90
47540;DHT22;33280;52.152;21.052;2023-02-26T09:06:11;0.90;99.90
47540;DHT22;33280;52.152;21.052;2023-02-26T09:08:38;1.00;99.90
47540;DHT22;33280;52.152;21.052;2023-02-26T09:11:05;1.10;99.90
47540;DHT22;33280;52.152;21.052;2023-02-26T09:13:32;1.10;99.90
47540;DHT22;33280;52.152;21.052;2023-02-26T09:15:59;0.90;99.90
47540;DHT22;33280;52.152;21.052;2023-02-26T09:18:25;1.00;99.90
47540;DHT22;33280;52.152;21.052;2023-02-26T09:20:53;1.00;99.90
47540;DHT22;33280;52.152;21.052;2023-02-26T09:23:24;0.90;99.90
47540;DHT22;33280;52.152;21.052;2023-02-26T09:25:52;0.90;99.90
47540;DHT22;33280;52.152;21.052;2023-02-26T09:28:21;0.90;99.90
47540;DHT22;33280;52.152;21.052;2023-02-26T09:30:51;1.00;99.90
47540;DHT22;33280;52.152;21.052;2023-02-26T09:33:19;1.10;99.90
47540;DHT22;33280;52.152;21.052;2023-02-26T09:35:50;1.20;99.90
47540;DHT22;33280;52.152;21.052;2023-02-26T09:38:18;1.30;99.90
47540;DHT22;33280;52.152;21.052;2023-02-26T09:40:53;1.30;99.90
47540;DHT22;33280;52.152;21.052;2023-02-26T09:46:08;1.10;99.90
47540;DHT22;33280;52.152;21.052;2023-02-26T09:48:38;1.10;99.90
47540;DHT22;33280;52.152;21.052;2023-02-26T09:51:08;1.10;99.90
47540;DHT22;33280;52.152;21.052;2023-02-26T09:53:39;1.10;99.90
47540;DHT22;33280;52.152;21.052;2023-02-26T09:56:18;1.00;99.90
47540;DHT22;33280;52.152;21.052;2023-02-26T09:58:47;1.10;99.90
47540;DHT22;33280;52.152;21.052;2023-02-26T10:01:22;1.20;99.90
47540;DHT22;33280;52.152;21.052;2023-02-26T10:09:28;1.20;99.90
47540;DHT22;33280;52.152;21.052;2023-02-26T10:14:38;1.20;99.90
47540;DHT22;33280;52.152;21.052;2023-02-26T10:17:18;1.20;99.90
47540;DHT22;33280;52.152;21.052;2023-02-26T10:19:51;1.20;99.90
47540;DHT22;33280;52.152;21.052;2023-02-26T10:22:27;1.20;99.90
47540;DHT22;33280;52.152;21.052;2023-02-26T10:25:06;1.20;99.90
47540;DHT22;33280;52.152;21.052;2023-02-26T10:30:50;1.10;99.90
47540;DHT22;33280;52.152;21.052;2023-02-26T10:33:32;1.10;99.90
47540;DHT22;33280;52.152;21.052;2023-02-26T10:38:48;1.30;99.90
47540;DHT22;33280;52.152;21.052;2023-02-26T10:41:20;1.30;99.90
47540;DHT22;33280;52.152;21.052;2023-02-26T10:44:08;1.30;99.90
47540;DHT22;33280;52.152;21.052;2023-02-26T10:46:50;1.20;99.90
47540;DHT22;33280;52.152;21.052;2023-02-26T10:49:26;1.00;99.90
47540;DHT22;33280;52.152;21.052;2023-02-26T10:51:57;1.00;99.90
47540;DHT22;33280;52.152;21.052;2023-02-26T10:54:34;1.00;99.90
47540;DHT22;33280;52.152;21.052;2023-02-26T10:57:03;1.10;99.90
47540;DHT22;33280;52.152;21.052;2023-02-26T10:59:30;1.10;99.90
47540;DHT22;33280;52.152;21.052;2023-02-26T11:01:58;1.00;99.90
47540;DHT22;33280;52.152;21.052;2023-02-26T11:04:26;1.10;99.90
47540;DHT22;33280;52.152;21.052;2023-02-26T11:06:58;1.00;99.90
47540;DHT22;33280;52.152;21.052;2023-02-26T11:09:30;0.90;99.90
47540;DHT22;33280;52.152;21.052;2023-02-26T11:14:33;1.00;99.90
47540;DHT22;33280;52.152;21.052;2023-02-26T11:17:03;0.90;99.90
47540;DHT22;33280;52.152;21.052;2023-02-26T11:19:40;0.90;99.90
47540;DHT22;33280;52.152;21.052;2023-02-26T11:22:12;0.80;99.90
47540;DHT22;33280;52.152;21.052;2023-02-26T11:24:42;0.90;99.90
47540;DHT22;33280;52.152;21.052;2023-02-26T11:27:19;1.00;99.90
47540;DHT22;33280;52.152;21.052;2023-02-26T11:29:52;1.10;99.90
47540;DHT22;33280;52.152;21.052;2023-02-26T11:32:22;1.20;99.90
47540;DHT22;33280;52.152;21.052;2023-02-26T11:34:51;1.30;99.90
47540;DHT22;33280;52.152;21.052;2023-02-26T11:37:23;1.40;99.90
47540;DHT22;33280;52.152;21.052;2023-02-26T11:42:55;1.70;99.90
47540;DHT22;33280;52.152;21.052;2023-02-26T11:45:24;1.70;99.90
47540;DHT22;33280;52.152;21.052;2023-02-26T11:48:12;1.60;99.90
47540;DHT22;33280;52.152;21.052;2023-02-26T11:50:44;1.40;99.90
47540;DHT22;33280;52.152;21.052;2023-02-26T11:53:36;1.40;99.90
47540;DHT22;33280;52.152;21.052;2023-02-26T11:56:13;1.50;99.90
47540;DHT22;33280;52.152;21.052;2023-02-26T11:58:45;1.60;99.90
47540;DHT22;33280;52.152;21.052;2023-02-26T12:01:13;1.60;99.90
47540;DHT22;33280;52.152;21.052;2023-02-26T12:03:46;1.70;99.90
47540;DHT22;33280;52.152;21.052;2023-02-26T12:06:21;1.80;99.90
47540;DHT22;33280;52.152;21.052;2023-02-26T12:08:52;1.80;99.90
47540;DHT22;33280;52.152;21.052;2023-02-26T12:22:46;1.50;99.90
47540;DHT22;33280;52.152;21.052;2023-02-26T12:25:49;1.60;99.90
47540;DHT22;33280;52.152;21.052;2023-02-26T12:28:22;1.60;99.90
47540;DHT22;33280;52.152;21.052;2023-02-26T12:45:05;1.60;99.90
47540;DHT22;33280;52.152;21.052;2023-02-26T12:53:36;1.80;99.90
47540;DHT22;33280;52.152;21.052;2023-02-26T12:59:12;2.00;99.90
47540;DHT22;33280;52.152;21.052;2023-02-26T13:05:23;2.10;99.90
47540;DHT22;33280;52.152;21.052;2023-02-26T13:08:03;2.10;99.90
47540;DHT22;33280;52.152;21.052;2023-02-26T13:11:05;2.00;99.90
47540;DHT22;33280;52.152;21.052;2023-02-26T13:22:02;2.00;99.90
47540;DHT22;33280;52.152;21.052;2023-02-26T13:24:40;1.90;99.90
47540;DHT22;33280;52.152;21.052;2023-02-26T13:27:10;1.90;99.90
47540;DHT22;33280;52.152;21.052;2023-02-26T13:30:17;1.90;99.90
47540;DHT22;33280;52.152;21.052;2023-02-26T13:32:36;2.00;99.90
47540;DHT22;33280;52.152;21.052;2023-02-26T13:37:52;2.00;99.90
47540;DHT22;33280;52.152;21.052;2023-02-26T13:40:36;1.90;99.90
47540;DHT22;33280;52.152;21.052;2023-02-26T13:49:19;1.90;99.90
47540;DHT22;33280;52.152;21.052;2023-02-26T13:51:52;2.00;99.90
47540;DHT22;33280;52.152;21.052;2023-02-26T13:57:08;2.20;99.90
47540;DHT22;33280;52.152;21.052;2023-02-26T13:59:45;2.20;99.90
47540;DHT22;33280;52.152;21.052;2023-02-26T14:04:58;2.50;99.90
47540;DHT22;33280;52.152;21.052;2023-02-26T14:07:48;2.60;99.90
47540;DHT22;33280;52.152;21.052;2023-02-26T14:10:32;2.60;99.90
47540;DHT22;33280;52.152;21.052;2023-02-26T14:13:20;2.40;99.90
47540;DHT22;33280;52.152;21.052;2023-02-26T14:24:35;2.40;99.90
47540;DHT22;33280;52.152;21.052;2023-02-26T14:29:42;2.40;99.90
47540;DHT22;33280;52.152;21.052;2023-02-26T14:34:51;2.50;99.90
47540;DHT22;33280;52.152;21.052;2023-02-26T14:37:22;2.60;99.90
47540;DHT22;33280;52.152;21.052;2023-02-26T14:40:13;2.60;99.90
47540;DHT22;33280;52.152;21.052;2023-02-26T14:42:46;2.60;99.90
47540;DHT22;33280;52.152;21.052;2023-02-26T14:47:43;2.70;99.90
47540;DHT22;33280;52.152;21.052;2023-02-26T14:50:16;2.60;99.90
47540;DHT22;33280;52.152;21.052;2023-02-26T14:58:42;2.50;99.90
47540;DHT22;33280;52.152;21.052;2023-02-26T15:20:36;2.20;99.90
47540;DHT22;33280;52.152;21.052;2023-02-26T15:26:18;2.30;99.90
47540;DHT22;33280;52.152;21.052;2023-02-26T15:28:47;2.20;99.90
47540;DHT22;33280;52.152;21.052;2023-02-26T15:31:18;2.30;99.90
47540;DHT22;33280;52.152;21.052;2023-02-26T15:33:49;2.20;99.90
47540;DHT22;33280;52.152;21.052;2023-02-26T15:36:20;2.30;99.90
47540;DHT22;33280;52.152;21.052;2023-02-26T15:38:56;2.20;99.90
47540;DHT22;33280;52.152;21.052;2023-02-26T15:41:27;2.30;99.90
47540;DHT22;33280;52.152;21.052;2023-02-26T15:44:07;2.30;99.90
47540;DHT22;33280;52.152;21.052;2023-02-26T15:46:41;2.30;99.90
47540;DHT22;33280;52.152;21.052;2023-02-26T15:49:22;2.20;99.90
47540;DHT22;33280;52.152;21.052;2023-02-26T15:51:51;2.20;99.90
47540;DHT22;33280;52.152;21.052;2023-02-26T15:54:22;2.20;99.90
47540;DHT22;33280;52.152;21.052;2023-02-26T15:56:49;2.20;99.90
47540;DHT22;33280;52.152;21.052;2023-02-26T15:59:28;2.20;99.90
47540;DHT22;33280;52.152;21.052;2023-02-26T16:01:57;2.10;99.90
47540;DHT22;33280;52.152;21.052;2023-02-26T16:04:27;2.00;99.90
47540;DHT22;33280;52.152;21.052;2023-02-26T16:06:58;2.00;99.90
47540;DHT22;33280;52.152;21.052;2023-02-26T16:09:27;2.00;99.90
47540;DHT22;33280;52.152;21.052;2023-02-26T16:11:57;1.90;99.90
47540;DHT22;33280;52.152;21.052;2023-02-26T16:14:31;1.80;99.90
47540;DHT22;33280;52.152;21.052;2023-02-26T16:16:59;1.80;99.90
47540;DHT22;33280;52.152;21.052;2023-02-26T16:22:18;1.60;99.90
47540;DHT22;33280;52.152;21.052;2023-02-26T16:25:06;1.70;99.90
47540;DHT22;33280;52.152;21.052;2023-02-26T16:27:37;1.60;99.90
47540;DHT22;33280;52.152;21.052;2023-02-26T16:30:19;1.70;99.90
47540;DHT22;33280;52.152;21.052;2023-02-26T16:32:52;1.80;99.90
47540;DHT22;33280;52.152;21.052;2023-02-26T16:35:21;1.70;99.90
47540;DHT22;33280;52.152;21.052;2023-02-26T16:37:53;1.70;99.90
47540;DHT22;33280;52.152;21.052;2023-02-26T16:43:31;1.60;99.90
47540;DHT22;33280;52.152;21.052;2023-02-26T16:46:03;1.60;99.90
47540;DHT22;33280;52.152;21.052;2023-02-26T16:48:40;1.60;99.90
47540;DHT22;33280;52.152;21.052;2023-02-26T16:51:15;1.60;99.90
47540;DHT22;33280;52.152;21.052;2023-02-26T16:53:48;1.60;99.90
47540;DHT22;33280;52.152;21.052;2023-02-26T16:56:21;1.60;99.90
47540;DHT22;33280;52.152;21.052;2023-02-26T16:59:16;1.60;99.90
47540;DHT22;33280;52.152;21.052;2023-02-26T17:01:53;1.60;99.90
47540;DHT22;33280;52.152;21.052;2023-02-26T17:04:28;1.60;99.90
47540;DHT22;33280;52.152;21.052;2023-02-26T17:06:57;1.70;99.90
47540;DHT22;33280;52.152;21.052;2023-02-26T17:09:29;1.70;99.90
47540;DHT22;33280;52.152;21.052;2023-02-26T17:12:20;1.70;99.90
47540;DHT22;33280;52.152;21.052;2023-02-26T17:14:59;1.70;99.90
47540;DHT22;33280;52.152;21.052;2023-02-26T17:17:27;1.70;99.90
47540;DHT22;33280;52.152;21.052;2023-02-26T17:19:54;1.70;99.90
47540;DHT22;33280;52.152;21.052;2023-02-26T17:22:26;1.70;99.90
47540;DHT22;33280;52.152;21.052;2023-02-26T17:24:53;1.70;99.90
47540;DHT22;33280;52.152;21.052;2023-02-26T17:27:30;1.70;99.90
47540;DHT22;33280;52.152;21.052;2023-02-26T17:30:00;1.70;99.90
47540;DHT22;33280;52.152;21.052;2023-02-26T17:32:28;1.70;99.90
47540;DHT22;33280;52.152;21.052;2023-02-26T17:34:58;1.70;99.90
47540;DHT22;33280;52.152;21.052;2023-02-26T17:37:30;1.80;99.90
47540;DHT22;33280;52.152;21.052;2023-02-26T17:39:58;1.80;99.90
47540;DHT22;33280;52.152;21.052;2023-02-26T17:42:26;1.80;99.90
47540;DHT22;33280;52.152;21.052;2023-02-26T17:44:53;1.80;99.90
47540;DHT22;33280;52.152;21.052;2023-02-26T17:47:25;1.80;99.90
47540;DHT22;33280;52.152;21.052;2023-02-26T17:49:53;1.70;99.90
47540;DHT22;33280;52.152;21.052;2023-02-26T17:52:20;1.80;99.90
47540;DHT22;33280;52.152;21.052;2023-02-26T17:54:46;1.70;99.90
47540;DHT22;33280;52.152;21.052;2023-02-26T17:57:19;1.70;99.90
47540;DHT22;33280;52.152;21.052;2023-02-26T17:59:47;1.70;99.90
47540;DHT22;33280;52.152;21.052;2023-02-26T18:02:23;1.70;99.90
47540;DHT22;33280;52.152;21.052;2023-02-26T18:04:52;1.70;99.90
47540;DHT22;33280;52.152;21.052;2023-02-26T18:07:20;1.80;99.90
47540;DHT22;33280;52.152;21.052;2023-02-26T18:09:48;1.80;99.90
47540;DHT22;33280;52.152;21.052;2023-02-26T18:12:17;1.90;99.90
47540;DHT22;33280;52.152;21.052;2023-02-26T18:14:45;1.80;99.90
47540;DHT22;33280;52.152;21.052;2023-02-26T18:17:20;1.90;99.90
47540;DHT22;33280;52.152;21.052;2023-02-26T18:19:48;1.90;99.90
47540;DHT22;33280;52.152;21.052;2023-02-26T18:22:17;2.00;99.90
47540;DHT22;33280;52.152;21.052;2023-02-26T18:24:45;1.90;99.90
47540;DHT22;33280;52.152;21.052;2023-02-26T18:27:17;2.00;99.90
47540;DHT22;33280;52.152;21.052;2023-02-26T18:29:45;2.00;99.90
47540;DHT22;33280;52.152;21.052;2023-02-26T18:32:21;1.90;99.90
47540;DHT22;33280;52.152;21.052;2023-02-26T18:34:49;2.00;99.90
47540;DHT22;33280;52.152;21.052;2023-02-26T18:37:19;2.00;99.90
47540;DHT22;33280;52.152;21.052;2023-02-26T18:39:54;1.90;99.90
47540;DHT22;33280;52.152;21.052;2023-02-26T18:48:47;1.80;99.90
47540;DHT22;33280;52.152;21.052;2023-02-26T18:51:14;1.80;99.90
47540;DHT22;33280;52.152;21.052;2023-02-26T18:53:41;1.70;99.90
47540;DHT22;33280;52.152;21.052;2023-02-26T18:56:08;1.80;99.90
47540;DHT22;33280;52.152;21.052;2023-02-26T18:58:35;1.70;99.90
47540;DHT22;33280;52.152;21.052;2023-02-26T19:01:05;1.70;99.90
47540;DHT22;33280;52.152;21.052;2023-02-26T19:03:32;1.80;99.90